sensor_id;sensor_type;location;lat;lon;timestamp;temperature;humidity
19060;DHT22;9663;48.996;8.334;2022-09-17T00:01:09;14.90;57.50
19060;DHT22;9663;48.996;8.334;2022-09-17T00:03:39;14.90;57.60
19060;DHT22;9663;48.996;8.334;2022-09-17T00:06:07;14.90;57.60
19060;DHT22;9663;48.996;8.334;2022-09-17T00:08:36;14.90;57.70
19060;DHT22;9663;48.996;8.334;2022-09-17T00:11:18;14.90;57.70
19060;DHT22;9663;48.996;8.334;2022-09-17T00:13:56;14.80;57.90
19060;DHT22;9663;48.996;8.334;2022-09-17T00:16:34;14.80;57.70
19060;DHT22;9663;48.996;8.334;2022-09-17T00:19:02;14.80;57.90
19060;DHT22;9663;48.996;8.334;2022-09-17T00:21:30;14.80;57.80
19060;DHT22;9663;48.996;8.334;2022-09-17T00:24:02;14.70;57.90
19060;DHT22;9663;48.996;8.334;2022-09-17T00:26:30;14.70;58.00
19060;DHT22;9663;48.996;8.334;2022-09-17T00:28:57;14.70;57.80
19060;DHT22;9663;48.996;8.334;2022-09-17T00:31:24;14.70;57.90
19060;DHT22;9663;48.996;8.334;2022-09-17T00:33:51;14.80;58.00
19060;DHT22;9663;48.996;8.334;2022-09-17T00:36:18;14.70;58.00
19060;DHT22;9663;48.996;8.334;2022-09-17T00:38:49;14.70;58.00
19060;DHT22;9663;48.996;8.334;2022-09-17T00:41:15;14.70;58.10
19060;DHT22;9663;48.996;8.334;2022-09-17T00:43:44;14.70;58.00
19060;DHT22;9663;48.996;8.334;2022-09-17T00:46:28;14.70;58.10
19060;DHT22;9663;48.996;8.334;2022-09-17T00:49:02;14.70;58.20
19060;DHT22;9663;48.996;8.334;2022-09-17T00:52:03;14.70;58.10
19060;DHT22;9663;48.996;8.334;2022-09-17T00:54:34;14.70;58.40
19060;DHT22;9663;48.996;8.334;2022-09-17T00:57:03;14.60;58.00
19060;DHT22;9663;48.996;8.334;2022-09-17T00:59:28;14.60;58.10
19060;DHT22;9663;48.996;8.334;2022-09-17T01:01:54;14.60;58.10
19060;DHT22;9663;48.996;8.334;2022-09-17T01:04:23;14.60;58.10
19060;DHT22;9663;48.996;8.334;2022-09-17T01:07:09;14.50;58.10
19060;DHT22;9663;48.996;8.334;2022-09-17T01:09:55;14.60;58.50
19060;DHT22;9663;48.996;8.334;2022-09-17T01:15:56;14.40;58.40
19060;DHT22;9663;48.996;8.334;2022-09-17T01:24:42;14.30;58.40
19060;DHT22;9663;48.996;8.334;2022-09-17T01:27:40;14.30;58.60
19060;DHT22;9663;48.996;8.334;2022-09-17T01:36:14;14.30;59.00
19060;DHT22;9663;48.996;8.334;2022-09-17T01:41:49;14.20;58.90
19060;DHT22;9663;48.996;8.334;2022-09-17T01:47:19;14.20;59.10
19060;DHT22;9663;48.996;8.334;2022-09-17T01:49:51;14.10;59.10
19060;DHT22;9663;48.996;8.334;2022-09-17T01:52:22;14.10;59.00
19060;DHT22;9663;48.996;8.334;2022-09-17T01:54:52;14.10;58.90
19060;DHT22;9663;48.996;8.334;2022-09-17T01:58:12;14.10;59.00
19060;DHT22;9663;48.996;8.334;2022-09-17T02:00:47;14.10;59.50
19060;DHT22;9663;48.996;8.334;2022-09-17T02:03:27;14.10;59.10
19060;DHT22;9663;48.996;8.334;2022-09-17T02:06:03;14.10;59.30
19060;DHT22;9663;48.996;8.334;2022-09-17T02:08:59;14.10;59.20
19060;DHT22;9663;48.996;8.334;2022-09-17T02:11:27;14.10;59.20
19060;DHT22;9663;48.996;8.334;2022-09-17T02:14:04;14.10;59.80
19060;DHT22;9663;48.996;8.334;2022-09-17T02:16:35;14.10;59.60
19060;DHT22;9663;48.996;8.334;2022-09-17T02:19:08;14.10;59.30
19060;DHT22;9663;48.996;8.334;2022-09-17T02:22:02;14.10;59.30
19060;DHT22;9663;48.996;8.334;2022-09-17T02:30:29;14.10;59.70
19060;DHT22;9663;48.996;8.334;2022-09-17T02:32:56;14.10;59.30
19060;DHT22;9663;48.996;8.334;2022-09-17T02:35:22;14.00;59.30
19060;DHT22;9663;48.996;8.334;2022-09-17T02:37:48;14.00;59.50
19060;DHT22;9663;48.996;8.334;2022-09-17T02:40:15;13.90;59.50
19060;DHT22;9663;48.996;8.334;2022-09-17T02:53:50;13.70;59.80
19060;DHT22;9663;48.996;8.334;2022-09-17T02:56:47;13.70;59.90
19060;DHT22;9663;48.996;8.334;2022-09-17T02:59:21;13.60;60.40
19060;DHT22;9663;48.996;8.334;2022-09-17T03:02:18;13.50;59.90
19060;DHT22;9663;48.996;8.334;2022-09-17T03:04:49;13.50;60.10
19060;DHT22;9663;48.996;8.334;2022-09-17T03:07:17;13.40;60.00
19060;DHT22;9663;48.996;8.334;2022-09-17T03:09:44;13.30;60.00
19060;DHT22;9663;48.996;8.334;2022-09-17T03:12:10;13.30;60.10
19060;DHT22;9663;48.996;8.334;2022-09-17T03:14:36;13.30;60.20
19060;DHT22;9663;48.996;8.334;2022-09-17T03:17:02;13.20;60.30
19060;DHT22;9663;48.996;8.334;2022-09-17T03:19:28;13.20;60.30
19060;DHT22;9663;48.996;8.334;2022-09-17T03:21:54;13.20;60.30
19060;DHT22;9663;48.996;8.334;2022-09-17T03:24:20;13.20;60.50
19060;DHT22;9663;48.996;8.334;2022-09-17T03:26:45;13.10;60.50
19060;DHT22;9663;48.996;8.334;2022-09-17T03:29:15;13.10;60.60
19060;DHT22;9663;48.996;8.334;2022-09-17T03:31:41;12.90;60.50
19060;DHT22;9663;48.996;8.334;2022-09-17T03:34:07;12.90;60.70
19060;DHT22;9663;48.996;8.334;2022-09-17T03:36:32;12.90;60.60
19060;DHT22;9663;48.996;8.334;2022-09-17T03:38:58;12.90;60.90
19060;DHT22;9663;48.996;8.334;2022-09-17T03:41:25;12.90;60.90
19060;DHT22;9663;48.996;8.334;2022-09-17T03:43:51;12.80;60.90
19060;DHT22;9663;48.996;8.334;2022-09-17T03:46:18;12.80;61.00
19060;DHT22;9663;48.996;8.334;2022-09-17T03:48:44;12.80;61.20
19060;DHT22;9663;48.996;8.334;2022-09-17T03:51:10;12.80;61.20
19060;DHT22;9663;48.996;8.334;2022-09-17T03:53:36;12.90;61.30
19060;DHT22;9663;48.996;8.334;2022-09-17T03:56:03;12.80;61.30
19060;DHT22;9663;48.996;8.334;2022-09-17T03:58:31;12.90;61.50
19060;DHT22;9663;48.996;8.334;2022-09-17T04:00:58;12.90;61.40
19060;DHT22;9663;48.996;8.334;2022-09-17T04:03:25;12.90;61.60
19060;DHT22;9663;48.996;8.334;2022-09-17T04:05:52;12.90;61.50
19060;DHT22;9663;48.996;8.334;2022-09-17T04:08:18;12.90;61.30
19060;DHT22;9663;48.996;8.334;2022-09-17T04:10:45;13.00;61.30
19060;DHT22;9663;48.996;8.334;2022-09-17T04:13:12;13.00;61.30
19060;DHT22;9663;48.996;8.334;2022-09-17T04:15:39;12.90;61.20
19060;DHT22;9663;48.996;8.334;2022-09-17T04:18:06;12.90;61.20
19060;DHT22;9663;48.996;8.334;2022-09-17T04:20:31;13.00;61.20
19060;DHT22;9663;48.996;8.334;2022-09-17T04:22:57;12.90;61.20
19060;DHT22;9663;48.996;8.334;2022-09-17T04:25:23;12.80;61.20
19060;DHT22;9663;48.996;8.334;2022-09-17T04:27:48;12.80;61.30
19060;DHT22;9663;48.996;8.334;2022-09-17T04:30:15;12.80;61.40
19060;DHT22;9663;48.996;8.334;2022-09-17T04:32:44;12.80;61.50
19060;DHT22;9663;48.996;8.334;2022-09-17T04:35:11;12.80;61.60
19060;DHT22;9663;48.996;8.334;2022-09-17T04:37:38;12.70;61.60
19060;DHT22;9663;48.996;8.334;2022-09-17T04:40:05;12.80;61.70
19060;DHT22;9663;48.996;8.334;2022-09-17T04:42:32;12.80;61.60
19060;DHT22;9663;48.996;8.334;2022-09-17T04:44:58;12.80;61.60
19060;DHT22;9663;48.996;8.334;2022-09-17T04:47:24;12.80;61.60
19060;DHT22;9663;48.996;8.334;2022-09-17T04:49:50;12.80;61.60
19060;DHT22;9663;48.996;8.334;2022-09-17T04:52:16;12.90;61.80
19060;DHT22;9663;48.996;8.334;2022-09-17T04:54:42;12.90;61.80
19060;DHT22;9663;48.996;8.334;2022-09-17T04:57:08;12.90;61.70
19060;DHT22;9663;48.996;8.334;2022-09-17T04:59:33;12.90;61.60
19060;DHT22;9663;48.996;8.334;2022-09-17T05:01:59;12.90;61.60
19060;DHT22;9663;48.996;8.334;2022-09-17T05:04:25;13.00;61.70
19060;DHT22;9663;48.996;8.334;2022-09-17T05:06:50;13.00;61.60
19060;DHT22;9663;48.996;8.334;2022-09-17T05:09:16;12.90;61.50
19060;DHT22;9663;48.996;8.334;2022-09-17T05:11:41;13.00;61.60
19060;DHT22;9663;48.996;8.334;2022-09-17T05:14:07;13.00;61.60
19060;DHT22;9663;48.996;8.334;2022-09-17T05:16:33;12.90;61.50
19060;DHT22;9663;48.996;8.334;2022-09-17T05:18:59;13.00;61.50
19060;DHT22;9663;48.996;8.334;2022-09-17T05:21:25;13.00;61.50
19060;DHT22;9663;48.996;8.334;2022-09-17T05:23:50;13.00;61.50
19060;DHT22;9663;48.996;8.334;2022-09-17T05:26:16;13.00;61.50
19060;DHT22;9663;48.996;8.334;2022-09-17T05:28:42;13.00;61.50
19060;DHT22;9663;48.996;8.334;2022-09-17T05:31:07;12.90;61.50
19060;DHT22;9663;48.996;8.334;2022-09-17T05:33:33;12.90;61.50
19060;DHT22;9663;48.996;8.334;2022-09-17T05:35:59;12.90;61.50
19060;DHT22;9663;48.996;8.334;2022-09-17T05:38:25;13.00;61.60
19060;DHT22;9663;48.996;8.334;2022-09-17T05:40:51;13.00;61.60
19060;DHT22;9663;48.996;8.334;2022-09-17T05:43:17;13.00;61.60
19060;DHT22;9663;48.996;8.334;2022-09-17T05:45:43;13.00;61.60
19060;DHT22;9663;48.996;8.334;2022-09-17T05:48:12;13.00;61.50
19060;DHT22;9663;48.996;8.334;2022-09-17T05:50:38;13.00;62.50
19060;DHT22;9663;48.996;8.334;2022-09-17T05:53:09;13.00;61.70
19060;DHT22;9663;48.996;8.334;2022-09-17T05:55:36;13.00;61.70
19060;DHT22;9663;48.996;8.334;2022-09-17T05:58:16;13.10;61.70
19060;DHT22;9663;48.996;8.334;2022-09-17T06:00:44;13.10;62.20
19060;DHT22;9663;48.996;8.334;2022-09-17T06:03:12;13.10;61.70
19060;DHT22;9663;48.996;8.334;2022-09-17T06:05:40;13.10;62.00
19060;DHT22;9663;48.996;8.334;2022-09-17T06:08:06;13.00;61.90
19060;DHT22;9663;48.996;8.334;2022-09-17T06:10:35;13.10;62.00
19060;DHT22;9663;48.996;8.334;2022-09-17T06:13:01;13.10;62.30
19060;DHT22;9663;48.996;8.334;2022-09-17T06:15:27;13.00;62.00
19060;DHT22;9663;48.996;8.334;2022-09-17T06:17:53;13.00;62.20
19060;DHT22;9663;48.996;8.334;2022-09-17T06:20:19;13.10;62.40
19060;DHT22;9663;48.996;8.334;2022-09-17T06:22:45;13.00;62.30
19060;DHT22;9663;48.996;8.334;2022-09-17T06:25:11;13.10;62.30
19060;DHT22;9663;48.996;8.334;2022-09-17T06:27:38;13.00;62.20
19060;DHT22;9663;48.996;8.334;2022-09-17T06:30:04;13.10;62.30
19060;DHT22;9663;48.996;8.334;2022-09-17T06:32:31;13.10;62.50
19060;DHT22;9663;48.996;8.334;2022-09-17T06:34:57;13.10;62.60
19060;DHT22;9663;48.996;8.334;2022-09-17T06:37:27;13.20;62.80
19060;DHT22;9663;48.996;8.334;2022-09-17T06:39:54;13.20;62.90
19060;DHT22;9663;48.996;8.334;2022-09-17T06:42:20;13.20;62.60
19060;DHT22;9663;48.996;8.334;2022-09-17T06:44:46;13.30;62.60
19060;DHT22;9663;48.996;8.334;2022-09-17T06:47:12;13.30;62.60
19060;DHT22;9663;48.996;8.334;2022-09-17T06:49:38;13.30;62.60
19060;DHT22;9663;48.996;8.334;2022-09-17T06:52:04;13.30;62.60
19060;DHT22;9663;48.996;8.334;2022-09-17T06:54:29;13.40;62.80
19060;DHT22;9663;48.996;8.334;2022-09-17T06:56:55;13.40;62.80
19060;DHT22;9663;48.996;8.334;2022-09-17T06:59:21;13.30;62.80
19060;DHT22;9663;48.996;8.334;2022-09-17T07:01:47;13.40;62.80
19060;DHT22;9663;48.996;8.334;2022-09-17T07:04:12;13.50;62.80
19060;DHT22;9663;48.996;8.334;2022-09-17T07:06:38;13.40;62.70
19060;DHT22;9663;48.996;8.334;2022-09-17T07:09:04;13.60;62.90
19060;DHT22;9663;48.996;8.334;2022-09-17T07:11:31;13.60;62.90
19060;DHT22;9663;48.996;8.334;2022-09-17T07:13:58;13.80;62.90
19060;DHT22;9663;48.996;8.334;2022-09-17T07:16:24;13.80;63.00
19060;DHT22;9663;48.996;8.334;2022-09-17T07:18:51;13.90;62.80
19060;DHT22;9663;48.996;8.334;2022-09-17T07:21:17;14.10;62.90
19060;DHT22;9663;48.996;8.334;2022-09-17T07:23:43;14.00;62.90
19060;DHT22;9663;48.996;8.334;2022-09-17T07:26:14;14.10;62.90
19060;DHT22;9663;48.996;8.334;2022-09-17T07:28:40;14.10;63.00
19060;DHT22;9663;48.996;8.334;2022-09-17T07:31:08;14.20;62.70
19060;DHT22;9663;48.996;8.334;2022-09-17T07:33:35;14.40;63.00
19060;DHT22;9663;48.996;8.334;2022-09-17T07:36:04;14.60;63.10
19060;DHT22;9663;48.996;8.334;2022-09-17T07:38:33;14.70;63.00
19060;DHT22;9663;48.996;8.334;2022-09-17T07:41:17;14.80;62.90
19060;DHT22;9663;48.996;8.334;2022-09-17T07:43:43;15.10;63.30
19060;DHT22;9663;48.996;8.334;2022-09-17T07:46:19;15.20;62.90
19060;DHT22;9663;48.996;8.334;2022-09-17T07:48:46;15.40;62.80
19060;DHT22;9663;48.996;8.334;2022-09-17T07:51:21;15.50;62.10
19060;DHT22;9663;48.996;8.334;2022-09-17T07:53:52;15.60;61.80
19060;DHT22;9663;48.996;8.334;2022-09-17T07:56:23;15.70;61.50
19060;DHT22;9663;48.996;8.334;2022-09-17T07:58:49;15.70;61.40
19060;DHT22;9663;48.996;8.334;2022-09-17T08:01:16;15.80;61.30
19060;DHT22;9663;48.996;8.334;2022-09-17T08:03:46;15.70;61.10
19060;DHT22;9663;48.996;8.334;2022-09-17T08:06:15;15.70;60.90
19060;DHT22;9663;48.996;8.334;2022-09-17T08:08:42;15.70;61.00
19060;DHT22;9663;48.996;8.334;2022-09-17T08:11:18;15.70;61.10
19060;DHT22;9663;48.996;8.334;2022-09-17T08:13:50;15.80;61.70
19060;DHT22;9663;48.996;8.334;2022-09-17T08:16:17;15.90;61.70
19060;DHT22;9663;48.996;8.334;2022-09-17T08:18:44;15.90;61.40
19060;DHT22;9663;48.996;8.334;2022-09-17T08:21:13;16.00;61.20
19060;DHT22;9663;48.996;8.334;2022-09-17T08:23:41;16.00;61.20
19060;DHT22;9663;48.996;8.334;2022-09-17T08:26:13;16.10;61.30
19060;DHT22;9663;48.996;8.334;2022-09-17T08:28:47;16.20;61.20
19060;DHT22;9663;48.996;8.334;2022-09-17T08:31:16;16.30;61.00
19060;DHT22;9663;48.996;8.334;2022-09-17T08:33:43;16.40;60.90
19060;DHT22;9663;48.996;8.334;2022-09-17T08:36:12;16.40;60.50
19060;DHT22;9663;48.996;8.334;2022-09-17T08:38:39;16.40;60.10
19060;DHT22;9663;48.996;8.334;2022-09-17T08:43:41;16.50;60.00
19060;DHT22;9663;48.996;8.334;2022-09-17T08:46:17;16.50;60.00
19060;DHT22;9663;48.996;8.334;2022-09-17T08:48:53;16.50;59.90
19060;DHT22;9663;48.996;8.334;2022-09-17T08:51:39;16.40;59.60
19060;DHT22;9663;48.996;8.334;2022-09-17T08:54:54;16.40;59.60
19060;DHT22;9663;48.996;8.334;2022-09-17T08:58:19;16.40;59.90
19060;DHT22;9663;48.996;8.334;2022-09-17T09:00:52;16.40;60.10
19060;DHT22;9663;48.996;8.334;2022-09-17T09:06:40;16.80;60.00
19060;DHT22;9663;48.996;8.334;2022-09-17T09:09:17;16.90;60.10
19060;DHT22;9663;48.996;8.334;2022-09-17T09:11:47;17.00;60.00
19060;DHT22;9663;48.996;8.334;2022-09-17T09:14:32;17.30;60.10
19060;DHT22;9663;48.996;8.334;2022-09-17T09:17:07;17.50;59.60
19060;DHT22;9663;48.996;8.334;2022-09-17T09:19:42;17.60;59.40
19060;DHT22;9663;48.996;8.334;2022-09-17T09:22:49;17.80;59.30
19060;DHT22;9663;48.996;8.334;2022-09-17T09:33:51;17.80;58.10
19060;DHT22;9663;48.996;8.334;2022-09-17T09:36:17;17.80;58.50
19060;DHT22;9663;48.996;8.334;2022-09-17T09:41:35;17.90;58.40
19060;DHT22;9663;48.996;8.334;2022-09-17T09:44:12;18.00;58.50
19060;DHT22;9663;48.996;8.334;2022-09-17T10:01:02;18.90;57.80
19060;DHT22;9663;48.996;8.334;2022-09-17T10:03:36;19.00;57.90
19060;DHT22;9663;48.996;8.334;2022-09-17T10:06:07;19.10;57.60
19060;DHT22;9663;48.996;8.334;2022-09-17T10:08:39;19.20;57.30
19060;DHT22;9663;48.996;8.334;2022-09-17T10:11:28;19.30;57.00
19060;DHT22;9663;48.996;8.334;2022-09-17T10:14:26;19.30;56.90
19060;DHT22;9663;48.996;8.334;2022-09-17T10:17:25;19.30;56.30
19060;DHT22;9663;48.996;8.334;2022-09-17T10:22:52;19.20;56.30
19060;DHT22;9663;48.996;8.334;2022-09-17T10:25:32;19.20;55.90
19060;DHT22;9663;48.996;8.334;2022-09-17T10:28:02;19.20;56.10
19060;DHT22;9663;48.996;8.334;2022-09-17T10:31:05;19.10;56.40
19060;DHT22;9663;48.996;8.334;2022-09-17T10:33:38;19.10;56.50
19060;DHT22;9663;48.996;8.334;2022-09-17T10:36:14;19.20;56.80
19060;DHT22;9663;48.996;8.334;2022-09-17T10:38:43;19.30;56.90
19060;DHT22;9663;48.996;8.334;2022-09-17T10:41:20;19.50;56.90
19060;DHT22;9663;48.996;8.334;2022-09-17T10:43:48;19.60;56.40
19060;DHT22;9663;48.996;8.334;2022-09-17T10:46:17;19.70;56.20
19060;DHT22;9663;48.996;8.334;2022-09-17T10:51:36;19.70;55.00
19060;DHT22;9663;48.996;8.334;2022-09-17T10:54:21;19.80;55.30
19060;DHT22;9663;48.996;8.334;2022-09-17T10:57:00;19.70;54.60
19060;DHT22;9663;48.996;8.334;2022-09-17T11:02:54;19.60;54.40
19060;DHT22;9663;48.996;8.334;2022-09-17T11:29:25;19.30;54.90
19060;DHT22;9663;48.996;8.334;2022-09-17T11:35:31;19.60;54.30
19060;DHT22;9663;48.996;8.334;2022-09-17T11:38:05;19.60;54.60
19060;DHT22;9663;48.996;8.334;2022-09-17T11:40:56;19.50;54.50
19060;DHT22;9663;48.996;8.334;2022-09-17T11:43:34;19.50;54.20
19060;DHT22;9663;48.996;8.334;2022-09-17T11:46:28;19.40;54.30
19060;DHT22;9663;48.996;8.334;2022-09-17T11:49:09;19.40;53.00
19060;DHT22;9663;48.996;8.334;2022-09-17T11:52:13;19.20;53.60
19060;DHT22;9663;48.996;8.334;2022-09-17T11:54:56;18.90;53.60
19060;DHT22;9663;48.996;8.334;2022-09-17T11:57:40;18.60;53.70
19060;DHT22;9663;48.996;8.334;2022-09-17T12:00:17;18.40;53.90
19060;DHT22;9663;48.996;8.334;2022-09-17T12:05:41;17.70;54.70
19060;DHT22;9663;48.996;8.334;2022-09-17T12:08:21;17.30;55.00
19060;DHT22;9663;48.996;8.334;2022-09-17T12:11:14;17.00;55.40
19060;DHT22;9663;48.996;8.334;2022-09-17T12:14:10;16.80;56.00
19060;DHT22;9663;48.996;8.334;2022-09-17T12:16:44;16.60;56.20
19060;DHT22;9663;48.996;8.334;2022-09-17T12:19:30;16.40;57.10
19060;DHT22;9663;48.996;8.334;2022-09-17T12:22:16;16.20;57.00
19060;DHT22;9663;48.996;8.334;2022-09-17T12:24:51;16.10;57.30
19060;DHT22;9663;48.996;8.334;2022-09-17T12:30:20;15.90;57.90
19060;DHT22;9663;48.996;8.334;2022-09-17T12:49:00;16.50;59.30
19060;DHT22;9663;48.996;8.334;2022-09-17T12:54:40;17.20;59.20
19060;DHT22;9663;48.996;8.334;2022-09-17T12:57:18;17.40;58.80
19060;DHT22;9663;48.996;8.334;2022-09-17T13:00:18;17.70;58.80
19060;DHT22;9663;48.996;8.334;2022-09-17T13:03:14;18.20;60.20
19060;DHT22;9663;48.996;8.334;2022-09-17T13:06:10;19.10;59.50
19060;DHT22;9663;48.996;8.334;2022-09-17T13:18:21;22.00;57.20
19060;DHT22;9663;48.996;8.334;2022-09-17T13:21:06;22.50;56.00
19060;DHT22;9663;48.996;8.334;2022-09-17T13:23:41;22.80;55.50
19060;DHT22;9663;48.996;8.334;2022-09-17T13:26:11;23.10;55.80
19060;DHT22;9663;48.996;8.334;2022-09-17T13:28:49;23.30;55.40
19060;DHT22;9663;48.996;8.334;2022-09-17T13:37:19;23.60;52.70
19060;DHT22;9663;48.996;8.334;2022-09-17T13:39:48;23.30;51.00
19060;DHT22;9663;48.996;8.334;2022-09-17T13:42:28;23.00;51.90
19060;DHT22;9663;48.996;8.334;2022-09-17T13:45:13;22.90;53.50
19060;DHT22;9663;48.996;8.334;2022-09-17T13:50:40;23.70;52.10
19060;DHT22;9663;48.996;8.334;2022-09-17T14:13:54;22.70;48.80
19060;DHT22;9663;48.996;8.334;2022-09-17T14:20:01;21.70;49.60
19060;DHT22;9663;48.996;8.334;2022-09-17T14:22:27;21.30;49.90
19060;DHT22;9663;48.996;8.334;2022-09-17T14:24:54;20.90;51.10
19060;DHT22;9663;48.996;8.334;2022-09-17T14:30:05;20.60;51.60
19060;DHT22;9663;48.996;8.334;2022-09-17T14:33:06;20.60;52.50
19060;DHT22;9663;48.996;8.334;2022-09-17T14:35:47;20.50;51.00
19060;DHT22;9663;48.996;8.334;2022-09-17T14:43:59;20.00;52.20
19060;DHT22;9663;48.996;8.334;2022-09-17T14:46:32;20.00;51.50
19060;DHT22;9663;48.996;8.334;2022-09-17T14:49:21;20.00;51.70
19060;DHT22;9663;48.996;8.334;2022-09-17T14:51:51;19.90;51.50
19060;DHT22;9663;48.996;8.334;2022-09-17T15:02:38;20.80;53.90
19060;DHT22;9663;48.996;8.334;2022-09-17T15:05:21;21.60;53.00
19060;DHT22;9663;48.996;8.334;2022-09-17T15:07:48;22.50;52.80
19060;DHT22;9663;48.996;8.334;2022-09-17T15:10:19;23.10;53.40
19060;DHT22;9663;48.996;8.334;2022-09-17T15:12:49;23.80;52.00
19060;DHT22;9663;48.996;8.334;2022-09-17T15:15:24;24.30;51.40
19060;DHT22;9663;48.996;8.334;2022-09-17T15:17:53;24.60;50.00
19060;DHT22;9663;48.996;8.334;2022-09-17T15:20:26;24.60;48.80
19060;DHT22;9663;48.996;8.334;2022-09-17T15:25:50;24.20;48.50
19060;DHT22;9663;48.996;8.334;2022-09-17T15:28:31;24.10;50.20
19060;DHT22;9663;48.996;8.334;2022-09-17T15:30:58;24.50;50.70
19060;DHT22;9663;48.996;8.334;2022-09-17T15:33:26;25.30;52.20
19060;DHT22;9663;48.996;8.334;2022-09-17T15:36:19;26.00;51.00
19060;DHT22;9663;48.996;8.334;2022-09-17T15:38:47;26.40;47.50
19060;DHT22;9663;48.996;8.334;2022-09-17T15:41:35;26.60;47.50
19060;DHT22;9663;48.996;8.334;2022-09-17T15:44:22;26.60;45.70
19060;DHT22;9663;48.996;8.334;2022-09-17T15:46:51;26.60;46.00
19060;DHT22;9663;48.996;8.334;2022-09-17T15:49:34;26.50;46.10
19060;DHT22;9663;48.996;8.334;2022-09-17T15:54:53;25.40;43.70
19060;DHT22;9663;48.996;8.334;2022-09-17T15:57:20;24.60;44.70
19060;DHT22;9663;48.996;8.334;2022-09-17T15:59:48;23.90;45.10
19060;DHT22;9663;48.996;8.334;2022-09-17T16:02:29;23.20;45.60
19060;DHT22;9663;48.996;8.334;2022-09-17T16:07:48;21.80;45.90
19060;DHT22;9663;48.996;8.334;2022-09-17T16:10:14;21.30;47.20
19060;DHT22;9663;48.996;8.334;2022-09-17T16:12:40;20.80;47.80
19060;DHT22;9663;48.996;8.334;2022-09-17T16:15:07;20.40;48.40
19060;DHT22;9663;48.996;8.334;2022-09-17T16:22:48;19.00;51.50
19060;DHT22;9663;48.996;8.334;2022-09-17T16:25:25;18.80;51.30
19060;DHT22;9663;48.996;8.334;2022-09-17T16:27:56;18.60;51.60
19060;DHT22;9663;48.996;8.334;2022-09-17T16:30:25;18.30;51.70
19060;DHT22;9663;48.996;8.334;2022-09-17T16:32:51;18.20;51.90
19060;DHT22;9663;48.996;8.334;2022-09-17T16:35:20;18.00;52.20
19060;DHT22;9663;48.996;8.334;2022-09-17T16:37:52;17.80;52.50
19060;DHT22;9663;48.996;8.334;2022-09-17T16:40:20;17.60;52.90
19060;DHT22;9663;48.996;8.334;2022-09-17T16:42:47;17.50;52.90
19060;DHT22;9663;48.996;8.334;2022-09-17T16:45:13;17.20;53.00
19060;DHT22;9663;48.996;8.334;2022-09-17T16:47:41;17.10;53.20
19060;DHT22;9663;48.996;8.334;2022-09-17T16:50:12;16.80;53.40
19060;DHT22;9663;48.996;8.334;2022-09-17T16:52:39;16.60;53.90
19060;DHT22;9663;48.996;8.334;2022-09-17T16:55:06;16.60;54.60
19060;DHT22;9663;48.996;8.334;2022-09-17T16:57:32;16.50;54.20
19060;DHT22;9663;48.996;8.334;2022-09-17T16:59:58;16.30;54.30
19060;DHT22;9663;48.996;8.334;2022-09-17T17:02:25;16.20;54.50
19060;DHT22;9663;48.996;8.334;2022-09-17T17:04:50;16.20;54.80
19060;DHT22;9663;48.996;8.334;2022-09-17T17:07:16;16.10;55.00
19060;DHT22;9663;48.996;8.334;2022-09-17T17:09:42;16.10;55.20
19060;DHT22;9663;48.996;8.334;2022-09-17T17:12:07;16.10;55.20
19060;DHT22;9663;48.996;8.334;2022-09-17T17:14:33;16.10;56.10
19060;DHT22;9663;48.996;8.334;2022-09-17T17:16:59;16.10;55.60
19060;DHT22;9663;48.996;8.334;2022-09-17T17:19:25;16.00;55.60
19060;DHT22;9663;48.996;8.334;2022-09-17T17:21:52;16.00;55.70
19060;DHT22;9663;48.996;8.334;2022-09-17T17:24:18;16.00;55.80
19060;DHT22;9663;48.996;8.334;2022-09-17T17:26:45;16.00;55.90
19060;DHT22;9663;48.996;8.334;2022-09-17T17:29:12;15.90;56.00
19060;DHT22;9663;48.996;8.334;2022-09-17T17:31:39;16.00;56.20
19060;DHT22;9663;48.996;8.334;2022-09-17T17:34:05;15.80;56.30
19060;DHT22;9663;48.996;8.334;2022-09-17T17:36:31;15.90;56.30
19060;DHT22;9663;48.996;8.334;2022-09-17T17:38:58;15.90;56.40
19060;DHT22;9663;48.996;8.334;2022-09-17T17:41:25;15.90;56.40
19060;DHT22;9663;48.996;8.334;2022-09-17T17:43:53;15.80;56.40
19060;DHT22;9663;48.996;8.334;2022-09-17T17:46:19;15.70;56.40
19060;DHT22;9663;48.996;8.334;2022-09-17T17:48:45;15.70;56.50
19060;DHT22;9663;48.996;8.334;2022-09-17T17:51:11;15.70;56.70
19060;DHT22;9663;48.996;8.334;2022-09-17T17:53:40;15.60;56.70
19060;DHT22;9663;48.996;8.334;2022-09-17T17:56:08;15.60;57.00
19060;DHT22;9663;48.996;8.334;2022-09-17T17:58:35;15.50;56.90
19060;DHT22;9663;48.996;8.334;2022-09-17T18:03:40;15.50;57.60
19060;DHT22;9663;48.996;8.334;2022-09-17T18:06:07;15.50;57.10
19060;DHT22;9663;48.996;8.334;2022-09-17T18:08:36;15.50;57.20
19060;DHT22;9663;48.996;8.334;2022-09-17T18:11:04;15.40;57.50
19060;DHT22;9663;48.996;8.334;2022-09-17T18:13:33;15.50;57.30
19060;DHT22;9663;48.996;8.334;2022-09-17T18:16:01;15.40;57.40
19060;DHT22;9663;48.996;8.334;2022-09-17T18:18:36;15.40;57.30
19060;DHT22;9663;48.996;8.334;2022-09-17T18:21:09;15.40;58.00
19060;DHT22;9663;48.996;8.334;2022-09-17T18:23:38;15.40;57.90
19060;DHT22;9663;48.996;8.334;2022-09-17T18:26:09;15.30;57.20
19060;DHT22;9663;48.996;8.334;2022-09-17T18:28:56;15.20;56.80
19060;DHT22;9663;48.996;8.334;2022-09-17T18:34:00;14.90;57.40
19060;DHT22;9663;48.996;8.334;2022-09-17T18:36:30;14.70;57.20
19060;DHT22;9663;48.996;8.334;2022-09-17T18:38:59;14.70;57.20
19060;DHT22;9663;48.996;8.334;2022-09-17T18:41:30;14.40;57.20
19060;DHT22;9663;48.996;8.334;2022-09-17T18:44:02;14.40;57.50
19060;DHT22;9663;48.996;8.334;2022-09-17T18:46:29;14.30;57.60
19060;DHT22;9663;48.996;8.334;2022-09-17T18:48:56;14.20;57.70
19060;DHT22;9663;48.996;8.334;2022-09-17T18:51:25;14.10;57.80
19060;DHT22;9663;48.996;8.334;2022-09-17T18:53:52;14.00;58.00
19060;DHT22;9663;48.996;8.334;2022-09-17T18:56:30;14.00;58.30
19060;DHT22;9663;48.996;8.334;2022-09-17T18:59:00;14.00;58.90
19060;DHT22;9663;48.996;8.334;2022-09-17T19:01:28;13.80;58.50
19060;DHT22;9663;48.996;8.334;2022-09-17T19:03:56;13.80;58.70
19060;DHT22;9663;48.996;8.334;2022-09-17T19:06:23;13.90;58.80
19060;DHT22;9663;48.996;8.334;2022-09-17T19:08:50;13.90;59.00
19060;DHT22;9663;48.996;8.334;2022-09-17T19:11:16;13.90;59.00
19060;DHT22;9663;48.996;8.334;2022-09-17T19:13:44;13.90;59.10
19060;DHT22;9663;48.996;8.334;2022-09-17T19:16:12;13.80;59.10
19060;DHT22;9663;48.996;8.334;2022-09-17T19:18:39;13.80;59.20
19060;DHT22;9663;48.996;8.334;2022-09-17T19:21:09;13.80;59.10
19060;DHT22;9663;48.996;8.334;2022-09-17T19:23:41;13.90;59.20
19060;DHT22;9663;48.996;8.334;2022-09-17T19:26:30;13.90;59.40
19060;DHT22;9663;48.996;8.334;2022-09-17T19:28:57;13.90;59.20
19060;DHT22;9663;48.996;8.334;2022-09-17T19:31:25;13.90;59.20
19060;DHT22;9663;48.996;8.334;2022-09-17T19:33:51;13.80;59.20
19060;DHT22;9663;48.996;8.334;2022-09-17T19:36:18;14.00;59.40
19060;DHT22;9663;48.996;8.334;2022-09-17T19:38:45;13.80;59.30
19060;DHT22;9663;48.996;8.334;2022-09-17T19:41:13;13.80;59.40
19060;DHT22;9663;48.996;8.334;2022-09-17T19:43:41;13.80;59.60